createdAt,value
2022-10-24T00:01:19.291Z,92.60
2022-10-24T00:03:46.434Z,92.50
2022-10-24T00:06:14.110Z,92.50
2022-10-24T00:08:43.291Z,92.50
2022-10-24T00:11:15.847Z,92.50
2022-10-24T00:13:43.213Z,92.60
2022-10-24T00:16:11.059Z,92.70
2022-10-24T00:18:38.774Z,92.90
2022-10-24T00:21:06.201Z,93.00
2022-10-24T00:23:33.240Z,93.10
2022-10-24T00:26:04.246Z,93.30
2022-10-24T00:28:36.368Z,93.40
2022-10-24T00:31:05.716Z,93.70
2022-10-24T00:33:33.456Z,93.80
2022-10-24T00:36:00.374Z,93.80
2022-10-24T00:38:27.299Z,93.80
2022-10-24T00:40:54.204Z,94.10
2022-10-24T00:43:25.214Z,94.20
2022-10-24T00:45:57.730Z,94.40
2022-10-24T00:48:36.681Z,94.40
2022-10-24T00:51:18.527Z,94.60
2022-10-24T00:53:50.974Z,94.50
2022-10-24T00:56:22.024Z,95.00
2022-10-24T00:58:50.148Z,94.70
2022-10-24T01:01:17.174Z,94.80
2022-10-24T01:03:44.135Z,94.90
2022-10-24T01:06:44.669Z,94.80
2022-10-24T01:09:39.856Z,95.10
2022-10-24T01:12:30.975Z,95.30
2022-10-24T01:15:13.762Z,95.10
2022-10-24T01:17:56.736Z,95.30
2022-10-24T01:21:07.476Z,95.40
2022-10-24T01:24:29.693Z,95.40
2022-10-24T01:27:08.497Z,95.60
2022-10-24T01:29:51.232Z,95.40
2022-10-24T01:32:35.680Z,95.40
2022-10-24T01:35:36.503Z,95.40
2022-10-24T01:38:30.190Z,95.50
2022-10-24T01:41:24.683Z,95.30
2022-10-24T01:44:07.520Z,95.60
2022-10-24T01:46:43.750Z,95.50
2022-10-24T01:49:18.563Z,95.40
2022-10-24T01:51:50.788Z,95.50
2022-10-24T01:54:17.907Z,95.40
2022-10-24T01:56:44.979Z,95.50
2022-10-24T01:59:29.818Z,95.50
2022-10-24T02:02:08.852Z,95.60
2022-10-24T02:04:44.436Z,95.60
2022-10-24T02:07:14.062Z,95.60
2022-10-24T02:09:43.863Z,95.60
2022-10-24T02:12:14.539Z,95.70
2022-10-24T02:14:48.020Z,95.70
2022-10-24T02:17:15.329Z,95.80
2022-10-24T02:19:43.348Z,95.70
2022-10-24T02:22:42.518Z,95.70
2022-10-24T02:25:13.442Z,95.90
2022-10-24T02:27:57.212Z,95.90
2022-10-24T02:30:26.732Z,95.90
2022-10-24T02:32:59.545Z,96.10
2022-10-24T02:35:30.224Z,96.30
2022-10-24T02:38:24.834Z,96.30
2022-10-24T02:40:54.017Z,96.50
2022-10-24T02:43:22.576Z,96.40
2022-10-24T02:45:53.408Z,96.50
2022-10-24T02:48:28.081Z,96.50
2022-10-24T02:50:55.027Z,96.60
2022-10-24T02:53:25.657Z,96.70
2022-10-24T02:55:52.695Z,96.70
2022-10-24T02:58:19.634Z,96.70
2022-10-24T03:00:46.654Z,96.80
2022-10-24T03:03:13.621Z,96.90
2022-10-24T03:05:40.527Z,96.90
2022-10-24T03:08:07.438Z,96.90
2022-10-24T03:10:34.304Z,97.00
2022-10-24T03:13:01.240Z,97.00
2022-10-24T03:15:28.100Z,97.10
2022-10-24T03:17:55.029Z,97.10
2022-10-24T03:20:21.921Z,97.20
2022-10-24T03:22:48.800Z,97.20
2022-10-24T03:25:15.810Z,97.10
2022-10-24T03:27:42.971Z,97.20
2022-10-24T03:30:10.727Z,97.30
2022-10-24T03:32:37.621Z,97.20
2022-10-24T03:35:04.901Z,97.20
2022-10-24T03:37:31.791Z,97.30
2022-10-24T03:39:59.084Z,97.30
2022-10-24T03:42:26.024Z,97.40
2022-10-24T03:44:52.909Z,97.40
2022-10-24T03:47:20.035Z,97.50
2022-10-24T03:49:46.963Z,97.50
2022-10-24T03:52:13.859Z,97.60
2022-10-24T03:54:40.771Z,97.60
2022-10-24T03:57:09.874Z,97.60
2022-10-24T03:59:37.262Z,97.70
2022-10-24T04:02:04.715Z,97.70
2022-10-24T04:04:32.256Z,97.70
2022-10-24T04:07:00.386Z,97.60
2022-10-24T04:09:28.055Z,97.60
2022-10-24T04:11:54.933Z,97.60
2022-10-24T04:14:22.138Z,97.60
2022-10-24T04:16:49.427Z,97.50
2022-10-24T04:19:19.650Z,97.60
2022-10-24T04:21:48.002Z,97.60
2022-10-24T04:24:15.997Z,97.60
2022-10-24T04:26:43.080Z,97.50
2022-10-24T04:29:10.059Z,97.70
2022-10-24T04:31:36.975Z,97.40
2022-10-24T04:34:05.540Z,97.40
2022-10-24T04:36:33.943Z,97.40
2022-10-24T04:41:32.965Z,97.30
2022-10-24T04:43:59.837Z,97.30
2022-10-24T04:46:26.727Z,97.30
2022-10-24T04:48:53.623Z,97.30
2022-10-24T04:51:22.420Z,97.30
2022-10-24T04:53:50.782Z,97.30
2022-10-24T04:56:18.824Z,97.20
2022-10-24T04:58:45.880Z,97.20
2022-10-24T05:01:12.803Z,97.20
2022-10-24T05:03:39.681Z,97.20
2022-10-24T05:06:06.604Z,97.30
2022-10-24T05:08:33.464Z,97.20
2022-10-24T05:11:00.473Z,97.30
2022-10-24T05:13:27.351Z,97.30
2022-10-24T05:15:54.252Z,97.30
2022-10-24T05:18:21.252Z,97.30
2022-10-24T05:20:48.135Z,97.30
2022-10-24T05:23:15.088Z,97.40
2022-10-24T05:25:41.981Z,97.40
2022-10-24T05:28:08.835Z,97.40
2022-10-24T05:30:35.804Z,97.50
2022-10-24T05:33:02.678Z,97.40
2022-10-24T05:35:29.550Z,97.50
2022-10-24T05:37:56.463Z,97.50
2022-10-24T05:40:23.388Z,97.40
2022-10-24T05:42:52.169Z,97.40
2022-10-24T05:45:19.286Z,97.40
2022-10-24T05:47:46.608Z,97.30
2022-10-24T05:50:14.249Z,97.20
2022-10-24T05:52:46.138Z,97.20
2022-10-24T05:55:17.009Z,97.20
2022-10-24T05:57:45.824Z,97.30
2022-10-24T06:00:15.732Z,97.20
2022-10-24T06:02:43.385Z,97.30
2022-10-24T06:05:11.608Z,97.20
2022-10-24T06:07:39.312Z,97.20
2022-10-24T06:10:07.045Z,97.30
2022-10-24T06:12:36.317Z,97.30
2022-10-24T06:15:05.455Z,97.40
2022-10-24T06:17:32.462Z,97.40
2022-10-24T06:19:59.321Z,97.30
2022-10-24T06:22:29.565Z,97.30
2022-10-24T06:24:56.722Z,97.60
2022-10-24T06:27:24.184Z,97.70
2022-10-24T06:29:51.070Z,97.80
2022-10-24T06:32:18.403Z,97.80
2022-10-24T06:34:45.288Z,97.90
2022-10-24T06:37:12.194Z,98.00
2022-10-24T06:39:39.144Z,98.00
2022-10-24T06:42:06.054Z,98.20
2022-10-24T06:44:33.005Z,98.20
2022-10-24T06:46:59.909Z,98.30
2022-10-24T06:49:26.894Z,98.30
2022-10-24T06:51:53.868Z,98.30
2022-10-24T06:54:21.218Z,98.40
2022-10-24T06:56:49.280Z,98.40
2022-10-24T06:59:17.835Z,98.40
2022-10-24T07:01:45.749Z,98.40
2022-10-24T07:04:12.901Z,98.50
2022-10-24T07:06:40.468Z,98.40
2022-10-24T07:09:10.289Z,98.40
2022-10-24T07:11:39.853Z,98.30
2022-10-24T07:14:09.132Z,98.40
2022-10-24T07:16:36.583Z,98.30
2022-10-24T07:19:05.151Z,98.20
2022-10-24T07:21:33.433Z,98.10
2022-10-24T07:24:01.338Z,98.40
2022-10-24T07:26:30.642Z,98.10
2022-10-24T07:29:04.172Z,98.00
2022-10-24T07:31:34.993Z,98.10
2022-10-24T07:34:05.261Z,98.10
2022-10-24T07:36:32.790Z,98.00
2022-10-24T07:39:00.695Z,97.90
2022-10-24T07:41:30.326Z,97.90
2022-10-24T07:43:58.931Z,97.90
2022-10-24T07:46:26.355Z,97.90
2022-10-24T07:48:54.505Z,97.60
2022-10-24T07:51:22.245Z,97.60
2022-10-24T07:53:49.904Z,97.50
2022-10-24T07:56:17.664Z,97.50
2022-10-24T07:58:45.720Z,97.40
2022-10-24T08:01:17.973Z,97.40
2022-10-24T08:03:45.118Z,97.30
2022-10-24T08:06:16.126Z,97.30
2022-10-24T08:08:43.360Z,97.20
2022-10-24T08:11:23.871Z,97.20
2022-10-24T08:13:52.106Z,97.10
2022-10-24T08:16:22.031Z,97.00
2022-10-24T08:18:50.410Z,97.10
2022-10-24T08:21:19.728Z,96.60
2022-10-24T08:23:50.403Z,96.30
2022-10-24T08:26:21.490Z,96.30
2022-10-24T08:28:49.181Z,96.30
2022-10-24T08:31:22.076Z,96.00
2022-10-24T08:33:52.608Z,96.00
2022-10-24T08:36:26.453Z,96.00
2022-10-24T08:38:53.517Z,95.90
2022-10-24T08:41:37.509Z,95.90
2022-10-24T08:44:27.140Z,95.80
2022-10-24T08:47:44.871Z,95.50
2022-10-24T08:50:26.100Z,95.40
2022-10-24T08:53:05.348Z,95.60
2022-10-24T08:55:53.823Z,95.60
2022-10-24T08:58:26.817Z,95.70
2022-10-24T09:00:57.738Z,95.70
2022-10-24T09:03:55.714Z,95.70
2022-10-24T09:06:28.161Z,95.70
2022-10-24T09:09:15.578Z,95.60
2022-10-24T09:11:52.823Z,95.40
2022-10-24T09:14:35.885Z,95.30
2022-10-24T09:17:34.059Z,95.20
2022-10-24T09:20:29.899Z,95.30
2022-10-24T09:23:01.017Z,95.30
2022-10-24T09:25:33.532Z,95.40
2022-10-24T09:28:04.734Z,95.30
2022-10-24T09:30:33.472Z,95.30
2022-10-24T09:33:22.440Z,95.20
2022-10-24T09:35:52.290Z,95.20
2022-10-24T09:38:37.854Z,95.00
2022-10-24T09:41:22.741Z,95.10
2022-10-24T09:43:58.029Z,94.90
2022-10-24T09:46:38.391Z,95.00
2022-10-24T09:49:20.224Z,95.10
2022-10-24T09:52:00.886Z,95.00
2022-10-24T09:54:34.996Z,95.00
2022-10-24T09:57:11.002Z,95.20
2022-10-24T09:59:46.213Z,94.50
2022-10-24T10:02:34.863Z,94.70
2022-10-24T10:05:04.514Z,94.70
2022-10-24T10:07:39.007Z,94.70
2022-10-24T10:10:29.338Z,94.30
2022-10-24T10:13:18.544Z,93.80
2022-10-24T10:15:49.259Z,94.30
2022-10-24T10:19:21.699Z,93.90
2022-10-24T10:22:00.227Z,93.60
2022-10-24T10:24:35.713Z,93.40
2022-10-24T10:27:30.329Z,93.50
2022-10-24T10:30:19.264Z,93.50
2022-10-24T10:33:11.301Z,93.10
2022-10-24T10:36:04.910Z,93.00
2022-10-24T10:38:52.650Z,93.30
2022-10-24T10:41:34.645Z,93.30
2022-10-24T10:44:27.884Z,93.10
2022-10-24T10:47:47.100Z,92.90
2022-10-24T10:50:27.946Z,92.90
2022-10-24T10:53:42.851Z,92.70
2022-10-24T10:56:40.108Z,92.50
2022-10-24T10:59:20.668Z,92.30
2022-10-24T11:02:12.425Z,92.70
2022-10-24T11:05:35.628Z,92.40
2022-10-24T11:08:27.436Z,92.30
2022-10-24T11:11:00.828Z,92.30
2022-10-24T11:13:35.685Z,92.40
2022-10-24T11:16:12.072Z,92.20
2022-10-24T11:18:43.949Z,92.40
2022-10-24T11:21:14.073Z,92.20
2022-10-24T11:24:13.944Z,92.50
2022-10-24T11:26:46.384Z,91.90
2022-10-24T11:29:30.026Z,92.20
2022-10-24T11:32:10.989Z,92.10
2022-10-24T11:34:51.782Z,92.10
2022-10-24T11:37:24.822Z,91.90
2022-10-24T11:40:12.408Z,92.00
2022-10-24T11:43:09.703Z,91.80
2022-10-24T11:46:09.554Z,91.90
2022-10-24T11:48:43.412Z,91.80
2022-10-24T11:51:20.584Z,91.80
2022-10-24T11:54:21.445Z,91.80
2022-10-24T11:56:56.754Z,91.40
2022-10-24T11:59:24.478Z,91.50
2022-10-24T12:02:41.939Z,91.50
2022-10-24T12:05:27.567Z,91.50
2022-10-24T12:08:42.438Z,91.40
2022-10-24T12:11:25.725Z,91.50
2022-10-24T12:14:30.504Z,91.30
2022-10-24T12:17:41.296Z,91.00
2022-10-24T12:20:15.817Z,90.90
2022-10-24T12:22:44.542Z,90.70
2022-10-24T12:25:37.349Z,90.50
2022-10-24T12:28:25.574Z,90.60
2022-10-24T12:31:22.365Z,90.30
2022-10-24T12:34:25.001Z,90.30
2022-10-24T12:37:17.068Z,90.40
2022-10-24T12:39:57.592Z,90.30
2022-10-24T12:42:25.288Z,90.50
2022-10-24T12:45:32.181Z,90.50
2022-10-24T12:47:58.921Z,90.30
2022-10-24T12:50:27.495Z,90.50
2022-10-24T12:52:57.261Z,90.60
2022-10-24T12:55:51.515Z,90.50
2022-10-24T12:58:34.815Z,90.50
2022-10-24T13:01:11.538Z,90.40
2022-10-24T13:03:50.710Z,90.20
2022-10-24T13:06:35.538Z,90.00
2022-10-24T13:09:54.387Z,90.10
2022-10-24T13:13:19.791Z,89.80
2022-10-24T13:15:58.878Z,89.20
2022-10-24T13:18:43.445Z,89.90
2022-10-24T13:21:14.939Z,89.90
2022-10-24T13:23:45.409Z,89.80
2022-10-24T13:26:42.899Z,89.40
2022-10-24T13:29:38.476Z,89.20
2022-10-24T13:32:05.186Z,89.50
2022-10-24T13:34:52.423Z,90.00
2022-10-24T13:37:41.409Z,89.10
2022-10-24T13:40:12.987Z,89.70
2022-10-24T13:42:57.476Z,89.80
2022-10-24T13:45:42.176Z,89.30
2022-10-24T13:48:26.359Z,89.70
2022-10-24T13:51:23.808Z,89.60
2022-10-24T13:53:56.482Z,89.20
2022-10-24T13:56:23.351Z,88.90
2022-10-24T13:58:50.289Z,89.20
2022-10-24T14:01:27.584Z,89.20
2022-10-24T14:03:56.630Z,89.30
2022-10-24T14:06:30.734Z,89.10
2022-10-24T14:09:07.305Z,89.20
2022-10-24T14:11:40.117Z,89.20
2022-10-24T14:14:35.020Z,88.90
2022-10-24T14:17:16.357Z,89.20
2022-10-24T14:20:10.594Z,89.20
2022-10-24T14:22:40.536Z,89.00
2022-10-24T14:25:36.888Z,89.20
2022-10-24T14:28:15.492Z,89.20
2022-10-24T14:30:54.704Z,89.00
2022-10-24T14:33:28.848Z,89.20
2022-10-24T14:35:58.805Z,89.20
2022-10-24T14:38:27.813Z,89.20
2022-10-24T14:41:07.783Z,89.40
2022-10-24T14:43:41.099Z,89.40
2022-10-24T14:46:13.858Z,89.60
2022-10-24T14:48:47.148Z,89.50
2022-10-24T14:51:27.271Z,89.90
2022-10-24T14:53:55.999Z,90.00
2022-10-24T14:56:27.889Z,90.10
2022-10-24T14:58:57.720Z,90.10
2022-10-24T15:01:25.494Z,90.20
2022-10-24T15:04:04.889Z,90.20
2022-10-24T15:06:44.165Z,90.20
2022-10-24T15:09:10.906Z,90.30
2022-10-24T15:11:45.456Z,90.20
2022-10-24T15:14:49.134Z,90.30
2022-10-24T15:17:29.866Z,90.30
2022-10-24T15:20:02.376Z,90.30
2022-10-24T15:22:36.326Z,90.30
2022-10-24T15:25:08.392Z,90.20
2022-10-24T15:27:44.029Z,90.20
2022-10-24T15:30:21.926Z,90.20
2022-10-24T15:32:50.702Z,90.20
2022-10-24T15:35:18.624Z,90.20
2022-10-24T15:38:03.973Z,90.20
2022-10-24T15:40:34.456Z,90.30
2022-10-24T15:43:01.785Z,90.40
2022-10-24T15:45:28.736Z,90.40
2022-10-24T15:47:55.669Z,90.40
2022-10-24T15:50:24.444Z,90.50
2022-10-24T15:52:55.979Z,90.50
2022-10-24T15:55:26.581Z,90.60
2022-10-24T15:57:54.159Z,90.60
2022-10-24T16:00:22.873Z,90.60
2022-10-24T16:02:53.004Z,90.70
2022-10-24T16:05:37.824Z,90.80
2022-10-24T16:08:05.119Z,90.80
2022-10-24T16:10:32.241Z,90.90
2022-10-24T16:12:59.138Z,90.90
2022-10-24T16:15:34.802Z,90.90
2022-10-24T16:18:02.121Z,91.00
2022-10-24T16:20:29.004Z,91.00
2022-10-24T16:22:55.909Z,91.10
2022-10-24T16:25:26.886Z,91.20
2022-10-24T16:27:53.844Z,91.20
2022-10-24T16:30:24.584Z,91.30
2022-10-24T16:32:52.231Z,91.40
2022-10-24T16:35:29.117Z,91.40
2022-10-24T16:37:58.059Z,91.50
2022-10-24T16:40:27.304Z,91.50
2022-10-24T16:42:56.659Z,91.50
2022-10-24T16:45:24.023Z,91.50
2022-10-24T16:47:51.592Z,91.50
2022-10-24T16:50:26.112Z,91.60
2022-10-24T16:53:01.313Z,91.70
2022-10-24T16:55:29.514Z,91.70
2022-10-24T16:57:57.316Z,91.70
2022-10-24T17:00:24.987Z,91.70
2022-10-24T17:02:54.302Z,91.70
2022-10-24T17:05:25.023Z,91.80
2022-10-24T17:07:52.102Z,91.90
2022-10-24T17:10:22.089Z,91.90
2022-10-24T17:12:51.780Z,91.90
2022-10-24T17:15:22.164Z,92.00
2022-10-24T17:17:50.179Z,92.00
2022-10-24T17:20:17.544Z,92.00
2022-10-24T17:22:46.320Z,92.10
2022-10-24T17:25:23.496Z,92.10
2022-10-24T17:27:51.365Z,92.20
2022-10-24T17:30:28.354Z,92.10
2022-10-24T17:32:55.332Z,92.30
2022-10-24T17:35:24.819Z,92.20
2022-10-24T17:38:37.939Z,92.30
2022-10-24T17:41:30.753Z,92.40
2022-10-24T17:43:57.935Z,92.20
2022-10-24T17:46:25.484Z,92.10
2022-10-24T17:48:53.585Z,92.10
2022-10-24T17:51:25.694Z,92.00
2022-10-24T17:53:53.303Z,91.90
2022-10-24T17:56:23.185Z,91.90
2022-10-24T17:58:52.528Z,91.70
2022-10-24T18:01:20.604Z,91.70
2022-10-24T18:03:47.580Z,91.70
2022-10-24T18:06:15.691Z,91.60
2022-10-24T18:08:42.934Z,91.50
2022-10-24T18:11:10.821Z,91.40
2022-10-24T18:13:38.569Z,91.40
2022-10-24T18:16:14.728Z,91.40
2022-10-24T18:18:42.869Z,91.50
2022-10-24T18:23:46.733Z,91.40
2022-10-24T18:26:19.958Z,91.40
2022-10-24T18:28:49.601Z,91.40
2022-10-24T18:31:24.435Z,91.40
2022-10-24T18:33:51.647Z,91.40
2022-10-24T18:36:22.922Z,91.40
2022-10-24T18:38:50.441Z,91.40
2022-10-24T18:41:35.119Z,91.50
2022-10-24T18:44:23.158Z,91.60
2022-10-24T18:46:51.925Z,91.50
2022-10-24T18:49:19.384Z,91.50
2022-10-24T18:52:18.591Z,91.50
2022-10-24T18:55:02.495Z,91.70
2022-10-24T18:57:32.881Z,91.70
2022-10-24T19:00:00.364Z,91.70
2022-10-24T19:02:48.537Z,91.80
2022-10-24T19:05:23.327Z,91.90
2022-10-24T19:07:51.604Z,91.80
2022-10-24T19:10:25.762Z,91.80
2022-10-24T19:12:54.396Z,91.90
2022-10-24T19:15:21.879Z,91.90
2022-10-24T19:17:50.217Z,91.90
2022-10-24T19:20:21.000Z,92.00
2022-10-24T19:22:48.283Z,92.10
2022-10-24T19:25:16.141Z,92.20
2022-10-24T19:27:43.653Z,92.30
2022-10-24T19:30:12.158Z,92.40
2022-10-24T19:32:39.040Z,92.50
2022-10-24T19:35:06.323Z,92.60
2022-10-24T19:37:33.237Z,92.60
2022-10-24T19:40:00.123Z,92.70
2022-10-24T19:42:27.047Z,92.70
2022-10-24T19:44:56.427Z,92.80
2022-10-24T19:47:23.444Z,92.80
2022-10-24T19:49:50.335Z,92.80
2022-10-24T19:52:17.220Z,92.90
2022-10-24T19:54:44.580Z,93.00
2022-10-24T19:57:12.212Z,93.00
2022-10-24T19:59:39.187Z,93.10
2022-10-24T20:02:06.480Z,93.10
2022-10-24T20:04:33.415Z,93.20
2022-10-24T20:07:00.284Z,93.30
2022-10-24T20:09:27.166Z,93.30
2022-10-24T20:11:54.050Z,93.30
2022-10-24T20:14:24.405Z,93.40
2022-10-24T20:16:51.632Z,93.50
2022-10-24T20:19:18.728Z,93.50
2022-10-24T20:21:45.612Z,93.60
2022-10-24T20:24:12.550Z,93.70
2022-10-24T20:26:39.425Z,93.80
2022-10-24T20:29:06.368Z,93.80
2022-10-24T20:31:40.772Z,93.80
2022-10-24T20:34:12.006Z,94.00
2022-10-24T20:36:42.788Z,94.10
2022-10-24T20:39:09.700Z,94.10
2022-10-24T20:41:37.489Z,94.20
2022-10-24T20:44:06.741Z,94.20
2022-10-24T20:46:33.688Z,94.30
2022-10-24T20:49:00.627Z,94.30
2022-10-24T20:51:27.909Z,94.30
2022-10-24T20:53:54.817Z,94.20
2022-10-24T20:56:23.840Z,94.30
2022-10-24T20:58:52.859Z,94.30
2022-10-24T21:01:26.165Z,94.20
2022-10-24T21:03:54.770Z,94.20
2022-10-24T21:06:30.660Z,94.20
2022-10-24T21:09:01.089Z,94.10
2022-10-24T21:11:30.717Z,94.00
2022-10-24T21:14:06.699Z,93.90
2022-10-24T21:16:34.693Z,93.80
2022-10-24T21:19:02.141Z,93.60
2022-10-24T21:21:29.452Z,93.60
2022-10-24T21:24:02.587Z,93.60
2022-10-24T21:26:33.561Z,93.50
2022-10-24T21:29:09.381Z,93.40
2022-10-24T21:31:48.954Z,93.30
2022-10-24T21:34:15.874Z,93.30
2022-10-24T21:36:42.761Z,93.20
2022-10-24T21:39:14.792Z,93.10
2022-10-24T21:41:42.365Z,93.10
2022-10-24T21:44:09.244Z,93.00
2022-10-24T21:46:36.107Z,93.00
2022-10-24T21:49:03.007Z,93.00
2022-10-24T21:51:35.749Z,93.00
2022-10-24T21:54:15.189Z,93.00
2022-10-24T21:56:42.220Z,93.10
2022-10-24T21:59:14.356Z,93.10
2022-10-24T22:01:42.865Z,93.10
2022-10-24T22:04:11.505Z,93.20
2022-10-24T22:06:39.031Z,93.30
2022-10-24T22:09:08.923Z,93.30
2022-10-24T22:11:36.884Z,93.40
2022-10-24T22:14:05.703Z,93.50
2022-10-24T22:16:33.861Z,93.50
2022-10-24T22:19:03.698Z,93.50
2022-10-24T22:21:40.047Z,93.50
2022-10-24T22:24:23.058Z,93.50
2022-10-24T22:26:51.339Z,93.50
2022-10-24T22:29:22.434Z,93.40
2022-10-24T22:31:50.515Z,93.40
2022-10-24T22:34:21.606Z,93.40
2022-10-24T22:37:12.808Z,93.40
2022-10-24T22:39:40.559Z,93.60
2022-10-24T22:42:12.396Z,93.50
2022-10-24T22:44:41.911Z,93.60
2022-10-24T22:48:05.278Z,93.60
2022-10-24T22:50:55.347Z,93.80
2022-10-24T22:53:26.456Z,93.60
2022-10-24T22:56:15.468Z,93.60
2022-10-24T22:58:44.577Z,93.60
2022-10-24T23:01:42.885Z,93.60
2022-10-24T23:04:54.008Z,93.60
2022-10-24T23:07:32.147Z,93.60
2022-10-24T23:09:59.029Z,93.90
2022-10-24T23:12:26.157Z,93.50
2022-10-24T23:14:53.505Z,93.50
2022-10-24T23:17:26.872Z,93.50
2022-10-24T23:19:54.604Z,93.60
2022-10-24T23:22:28.178Z,93.60
2022-10-24T23:24:58.427Z,93.60
2022-10-24T23:27:44.675Z,93.60
2022-10-24T23:30:22.396Z,93.60
2022-10-24T23:32:51.007Z,93.50
2022-10-24T23:35:19.851Z,93.60
2022-10-24T23:37:49.671Z,93.60
2022-10-24T23:40:34.798Z,93.60
2022-10-24T23:43:04.152Z,93.60
2022-10-24T23:46:12.569Z,93.60
2022-10-24T23:48:57.898Z,93.60
2022-10-24T23:51:35.120Z,93.80
2022-10-24T23:54:02.422Z,93.50
2022-10-24T23:56:30.153Z,93.60
2022-10-24T23:58:57.048Z,93.70
